Time;durP1;ratioP1;P1;durP2;ratioP2;P2;SDS_P1;SDS_P2;PMS_P1;PMS_P2;Temp;Humidity;BMP_temperature;BMP_pressure;BME280_temperature;BME280_humidity;BME280_pressure;Samples;Min_cycle;Max_cycle;Signal;HPM_P1;HPM_P2
2022/06/14 00:02:21;;;;;;;5.47;2.00;;;;;10.00;101932.00;;;;10191075;29;20225;-80
2022/06/14 00:07:23;;;;;;;4.27;2.00;;;;;9.90;101929.00;;;;10212834;29;20228;-80
2022/06/14 00:12:26;;;;;;;3.57;1.77;;;;;9.80;101938.00;;;;10228302;29;20206;-80
2022/06/14 00:17:28;;;;;;;3.17;1.80;;;;;9.80;101940.00;;;;10212515;28;20194;-80
2022/06/14 00:22:32;;;;;;;4.27;1.80;;;;;9.70;101933.00;;;;10212090;29;20310;-80
2022/06/14 00:27:34;;;;;;;7.23;1.90;;;;;9.70;101936.00;;;;10228105;29;20213;-80
2022/06/14 00:32:36;;;;;;;10.53;2.37;;;;;9.60;101929.00;;;;10195608;29;20594;-80
2022/06/14 00:37:38;;;;;;;6.10;2.30;;;;;9.60;101913.00;;;;10227747;29;20610;-80
2022/06/14 00:42:41;;;;;;;2.83;1.80;;;;;9.50;101918.00;;;;10244139;29;20221;-79
2022/06/14 00:47:55;;;;;;;4.33;1.93;;;;;9.50;101921.00;;;;10223988;29;20304;-79
2022/06/14 00:53:04;;;;;;;5.40;2.40;;;;;9.40;101912.00;;;;10226627;29;20201;-80
2022/06/14 00:58:17;;;;;;;4.03;2.17;;;;;9.30;101910.00;;;;10226649;29;20304;-80
2022/06/14 01:03:23;;;;;;;6.63;2.23;;;;;9.20;101908.00;;;;10211479;29;20261;-79
2022/06/14 01:08:27;;;;;;;5.10;2.07;;;;;9.20;101903.00;;;;10224342;29;20584;-79
2022/06/14 01:13:29;;;;;;;7.87;3.23;;;;;9.20;101896.00;;;;10240832;29;20657;-80
2022/06/14 01:18:32;;;;;;;5.90;2.63;;;;;9.10;101878.00;;;;10239636;29;20197;-80
2022/06/14 01:23:34;;;;;;;8.13;2.63;;;;;9.10;101884.00;;;;10199762;29;20203;-80
2022/06/14 01:28:39;;;;;;;10.47;4.10;;;;;9.00;101882.00;;;;10206154;28;20681;-80
2022/06/14 01:33:49;;;;;;;9.77;3.73;;;;;8.90;101879.00;;;;10180236;29;20190;-80
2022/06/14 01:38:53;;;;;;;6.60;3.00;;;;;8.80;101877.00;;;;10223567;29;20190;-80
2022/06/14 01:44:17;;;;;;;11.77;5.07;;;;;8.80;101873.00;;;;10223445;29;20227;-80
2022/06/14 01:55:18;;;;;;;5.73;3.27;;;;;8.70;101870.00;;;;10183786;29;20228;-79
2022/06/14 02:00:29;;;;;;;7.17;3.67;;;;;8.70;101856.00;;;;10171106;29;20201;-80
2022/06/14 02:05:32;;;;;;;6.50;2.80;;;;;8.70;101841.00;;;;10222725;28;20280;-79
2022/06/14 02:10:41;;;;;;;5.37;2.93;;;;;8.60;101853.00;;;;10206474;29;20208;-79
2022/06/14 02:15:52;;;;;;;6.70;2.57;;;;;8.50;101856.00;;;;10192283;29;20186;-80
2022/06/14 02:21:16;;;;;;;8.93;2.80;;;;;8.40;101837.00;;;;10207826;29;20613;-80
2022/06/14 02:26:26;;;;;;;7.23;2.50;;;;;8.40;101846.00;;;;10238389;29;20212;-79
2022/06/14 02:31:35;;;;;;;4.93;2.37;;;;;8.40;101845.00;;;;10222636;29;20202;-80
2022/06/14 02:36:48;;;;;;;8.07;2.80;;;;;8.30;101838.00;;;;10222939;29;20663;-79
2022/06/14 02:41:57;;;;;;;4.10;2.70;;;;;8.20;101843.00;;;;10207450;28;20221;-79
2022/06/14 02:47:04;;;;;;;4.83;2.77;;;;;8.20;101832.00;;;;10230006;29;20264;-80
2022/06/14 02:52:12;;;;;;;4.40;2.50;;;;;8.20;101838.00;;;;10216789;29;20198;-79
2022/06/14 02:57:28;;;;;;;5.63;2.80;;;;;8.20;101835.00;;;;10213742;29;20197;-79
2022/06/14 03:02:37;;;;;;;4.20;2.10;;;;;8.10;101836.00;;;;10212875;29;20205;-79
2022/06/14 03:07:46;;;;;;;4.50;2.60;;;;;8.10;101837.00;;;;10229368;29;20225;-78
2022/06/14 03:12:57;;;;;;;6.40;2.50;;;;;8.00;101844.00;;;;10194308;29;20580;-80
2022/06/14 03:18:12;;;;;;;4.80;2.70;;;;;8.00;101844.00;;;;10228900;29;20182;-80
2022/06/14 03:23:46;;;;;;;7.87;3.13;;;;;7.90;101844.00;;;;10245437;29;20189;-78
2022/06/14 03:28:53;;;;;;;6.73;3.23;;;;;7.90;101844.00;;;;10212571;29;20205;-79
2022/06/14 03:34:13;;;;;;;6.77;2.93;;;;;7.90;101846.00;;;;10228472;29;20206;-79
2022/06/14 03:39:20;;;;;;;7.03;2.43;;;;;8.00;101845.00;;;;10228675;29;20664;-80
2022/06/14 03:44:25;;;;;;;6.47;3.10;;;;;8.00;101844.00;;;;10188025;29;20269;-80
2022/06/14 03:49:27;;;;;;;5.13;2.90;;;;;8.10;101830.00;;;;10203899;29;20198;-80
2022/06/14 03:54:43;;;;;;;6.60;2.80;;;;;8.20;101843.00;;;;10225929;29;20194;-78
2022/06/14 04:00:06;;;;;;;4.30;2.47;;;;;8.30;101849.00;;;;10227254;29;20204;-80
2022/06/14 04:05:38;;;;;;;4.57;2.67;;;;;8.40;101841.00;;;;10227592;29;20221;-78
2022/06/14 04:10:50;;;;;;;4.47;2.27;;;;;8.50;101841.00;;;;10185016;29;20248;-79
2022/06/14 04:15:57;;;;;;;5.83;3.03;;;;;8.90;101841.00;;;;10190580;29;20562;-80
2022/06/14 04:21:21;;;;;;;5.40;2.80;;;;;9.10;101842.00;;;;10171622;29;20231;-79
2022/06/14 04:26:38;;;;;;;4.30;2.63;;;;;9.30;101844.00;;;;10202634;29;20265;-79
2022/06/14 04:31:44;;;;;;;6.53;3.70;;;;;9.50;101849.00;;;;10209947;29;20201;-80
2022/06/14 04:37:09;;;;;;;7.17;3.30;;;;;9.70;101851.00;;;;10225957;29;20190;-79
2022/06/14 04:42:33;;;;;;;7.23;2.80;;;;;9.90;101856.00;;;;10217588;29;20727;-79
2022/06/14 04:47:57;;;;;;;6.40;2.83;;;;;10.10;101856.00;;;;10201487;29;20213;-79
2022/06/14 04:53:13;;;;;;;4.43;2.63;;;;;10.30;101865.00;;;;10195703;29;20229;-79
2022/06/14 04:58:24;;;;;;;7.53;3.10;;;;;10.70;101856.00;;;;10194107;29;20744;-80
2022/06/14 05:04:06;;;;;;;8.67;4.00;;;;;11.30;101853.00;;;;10190821;28;20205;-80
2022/06/14 05:09:11;;;;;;;5.83;3.87;;;;;11.90;101846.00;;;;10219528;28;20596;-80
2022/06/14 05:14:45;;;;;;;11.10;4.37;;;;;12.60;101857.00;;;;10200674;29;20218;-79
2022/06/14 05:20:26;;;;;;;8.80;4.13;;;;;13.20;101850.00;;;;10198603;29;20205;-80
2022/06/14 05:25:49;;;;;;;5.13;3.30;;;;;13.70;101845.00;;;;10212071;28;20298;-79
2022/06/14 05:31:30;;;;;;;7.93;3.33;;;;;14.20;101851.00;;;;10234631;28;20279;-80
2022/06/14 05:36:38;;;;;;;9.97;4.10;;;;;14.90;101853.00;;;;10224353;28;20216;-80
2022/06/14 05:41:50;;;;;;;8.53;3.23;;;;;15.60;101864.00;;;;10263234;28;20548;-80
2022/06/14 05:46:55;;;;;;;8.47;3.47;;;;;16.10;101864.00;;;;10239597;28;20235;-80
2022/06/14 05:52:41;;;;;;;7.33;3.77;;;;;16.60;101860.00;;;;10205831;29;20597;-80
2022/06/14 05:57:49;;;;;;;5.80;3.00;;;;;17.00;101869.00;;;;10216651;29;20252;-81
2022/06/14 06:03:07;;;;;;;7.35;2.88;;;;;17.60;101878.00;;;;10218691;28;20209;-80
2022/06/14 06:08:21;;;;;;;10.68;3.00;;;;;17.90;101878.00;;;;10221538;28;20225;-81
2022/06/14 06:13:35;;;;;;;6.97;2.95;;;;;18.40;101882.00;;;;10167820;28;20206;-80
2022/06/14 06:18:45;;;;;;;5.45;2.47;;;;;18.50;101876.00;;;;10219970;29;20224;-80
2022/06/14 06:23:56;;;;;;;9.18;2.83;;;;;18.60;101874.00;;;;10246558;29;20767;-81
2022/06/14 06:29:20;;;;;;;17.13;3.65;;;;;18.90;101882.00;;;;10230427;29;20260;-81
2022/06/14 06:34:22;;;;;;;5.90;2.50;;;;;19.10;101878.00;;;;10238208;29;20194;-81
2022/06/14 06:39:36;;;;;;;4.50;1.80;;;;;19.50;101887.00;;;;10214504;29;20657;-81
2022/06/14 06:44:50;;;;;;;6.63;2.25;;;;;19.80;101895.00;;;;10213702;29;20221;-80
2022/06/14 06:50:10;;;;;;;5.07;1.73;;;;;20.00;101887.00;;;;10229014;29;20244;-81
2022/06/14 06:55:36;;;;;;;4.80;1.40;;;;;20.30;101886.00;;;;10214700;29;20200;-80
2022/06/14 07:00:41;;;;;;;6.35;1.67;;;;;20.80;101881.00;;;;10213702;29;20193;-80
2022/06/14 07:05:48;;;;;;;6.68;2.00;;;;;21.00;101880.00;;;;10198055;29;20705;-80
2022/06/14 07:10:53;;;;;;;5.82;1.98;;;;;21.40;101877.00;;;;10205868;29;20192;-80
2022/06/14 07:16:32;;;;;;;3.55;1.55;;;;;21.70;101883.00;;;;10231420;29;20217;-80
2022/06/14 07:21:41;;;;;;;5.55;1.90;;;;;21.70;101885.00;;;;10243991;29;20224;-81
2022/06/14 07:26:53;;;;;;;5.40;1.73;;;;;21.90;101883.00;;;;10227775;28;20214;-81
2022/06/14 07:32:06;;;;;;;2.83;1.50;;;;;22.20;101887.00;;;;10211453;29;20630;-80
2022/06/14 07:37:23;;;;;;;4.32;1.60;;;;;22.50;101879.00;;;;10212038;29;20190;-79
2022/06/14 07:42:45;;;;;;;6.25;1.80;;;;;22.90;101879.00;;;;10187576;29;20224;-80
2022/06/14 07:48:04;;;;;;;6.03;1.48;;;;;23.00;101878.00;;;;10218489;29;20292;-79
2022/06/14 07:53:09;;;;;;;5.05;1.40;;;;;23.10;101877.00;;;;10210163;29;20189;-79
2022/06/14 07:58:40;;;;;;;5.53;1.25;;;;;23.60;101874.00;;;;10208988;29;20188;-79
2022/06/14 08:03:49;;;;;;;6.35;1.50;;;;;23.60;101877.00;;;;10225768;29;20210;-79
2022/06/14 08:09:01;;;;;;;4.78;1.50;;;;;24.00;101872.00;;;;10253560;29;20217;-78
2022/06/14 08:14:10;;;;;;;5.03;1.33;;;;;24.00;101871.00;;;;10224958;29;20564;-79
2022/06/14 08:19:28;;;;;;;7.32;1.80;;;;;24.70;101861.00;;;;10201040;29;20555;-79
2022/06/14 08:24:38;;;;;;;6.97;1.65;;;;;24.80;101843.00;;;;10218992;29;20573;-79
2022/06/14 08:29:43;;;;;;;2.72;1.35;;;;;25.30;101851.00;;;;10185312;29;20217;-80
2022/06/14 08:35:03;;;;;;;4.90;1.50;;;;;25.50;101846.00;;;;10248978;29;20192;-79
2022/06/14 08:40:44;;;;;;;4.95;1.67;;;;;26.00;101838.00;;;;10223611;29;20556;-80
2022/06/14 08:46:25;;;;;;;2.95;1.60;;;;;25.90;101841.00;;;;10137589;29;20604;-80
2022/06/14 08:51:48;;;;;;;3.72;1.58;;;;;26.00;101848.00;;;;10220050;29;20198;-79
2022/06/14 08:56:58;;;;;;;3.80;1.50;;;;;26.10;101847.00;;;;10214447;29;20840;-79
2022/06/14 09:02:35;;;;;;;5.07;1.70;;;;;26.10;101835.00;;;;10219475;29;20194;-79
2022/06/14 09:07:42;;;;;;;4.95;1.60;;;;;26.30;101831.00;;;;10167444;29;20228;-79
2022/06/14 09:12:44;;;;;;;3.95;1.63;;;;;26.60;101832.00;;;;10203329;29;20576;-79
2022/06/14 09:18:10;;;;;;;6.45;1.60;;;;;26.60;101826.00;;;;10194693;29;20258;-79
2022/06/14 09:23:46;;;;;;;3.47;1.73;;;;;27.30;101823.00;;;;10167664;29;20222;-79
2022/06/14 09:29:04;;;;;;;3.55;1.48;;;;;28.10;101823.00;;;;10167569;29;20265;-79
2022/06/14 09:34:51;;;;;;;3.28;1.55;;;;;28.10;101810.00;;;;10208649;29;20198;-80
2022/06/14 09:40:12;;;;;;;6.40;1.92;;;;;27.90;101818.00;;;;10174444;29;20197;-79
2022/06/14 09:45:40;;;;;;;5.97;2.08;;;;;27.70;101811.00;;;;10205505;29;20217;-79
2022/06/14 09:51:15;;;;;;;6.78;2.13;;;;;27.20;101801.00;;;;10195907;28;20194;-79
2022/06/14 09:57:01;;;;;;;6.75;2.10;;;;;27.60;101795.00;;;;10225121;29;20225;-80
2022/06/14 10:02:19;;;;;;;3.72;1.52;;;;;27.90;101786.00;;;;10195445;29;20209;-80
2022/06/14 10:07:40;;;;;;;3.45;1.45;;;;;27.90;101775.00;;;;10220838;29;20241;-80
2022/06/14 10:13:19;;;;;;;4.47;1.95;;;;;28.20;101774.00;;;;10166065;29;20198;-79
2022/06/14 10:18:27;;;;;;;4.70;1.33;;;;;28.20;101762.00;;;;10166553;29;20195;-79
2022/06/14 10:23:58;;;;;;;4.65;1.92;;;;;28.70;101764.00;;;;10191016;29;20221;-79
2022/06/14 10:29:06;;;;;;;6.25;1.88;;;;;28.60;101753.00;;;;10204743;29;20209;-79
2022/06/14 10:34:21;;;;;;;10.15;2.22;;;;;28.20;101754.00;;;;10219494;29;20202;-79
2022/06/14 10:39:46;;;;;;;3.55;1.88;;;;;28.70;101746.00;;;;10204183;29;20234;-79
2022/06/14 10:44:58;;;;;;;4.78;2.30;;;;;29.20;101748.00;;;;10156207;29;20198;-79
2022/06/14 10:50:22;;;;;;;4.20;1.40;;;;;29.80;101734.00;;;;10209455;29;20736;-78
2022/06/14 10:55:43;;;;;;;3.80;1.45;;;;;29.40;101744.00;;;;10216865;29;20224;-79
2022/06/14 11:01:13;;;;;;;5.70;1.85;;;;;28.60;101723.00;;;;10209910;29;20194;-79
2022/06/14 11:06:46;;;;;;;5.55;2.08;;;;;29.10;101709.00;;;;10227394;28;20636;-80
2022/06/14 11:12:10;;;;;;;6.72;1.92;;;;;29.20;101718.00;;;;10242513;29;20201;-79
2022/06/14 11:17:38;;;;;;;4.53;2.03;;;;;29.50;101697.00;;;;10210176;29;20205;-79
2022/06/14 11:22:48;;;;;;;5.15;1.95;;;;;30.00;101695.00;;;;10226034;29;20213;-80
2022/06/14 11:28:08;;;;;;;5.07;1.52;;;;;30.30;101700.00;;;;10201793;29;20233;-78
2022/06/14 11:33:22;;;;;;;5.72;1.73;;;;;29.40;101686.00;;;;10206078;29;20280;-80
2022/06/14 11:38:44;;;;;;;4.60;2.20;;;;;29.80;101682.00;;;;10210460;29;20205;-80
2022/06/14 11:43:58;;;;;;;5.13;1.95;;;;;29.80;101685.00;;;;10233393;29;20222;-80
2022/06/14 11:49:03;;;;;;;6.32;1.85;;;;;30.10;101679.00;;;;10217572;29;20218;-80
2022/06/14 11:54:21;;;;;;;5.65;1.63;;;;;29.70;101674.00;;;;10206533;29;20209;-80
2022/06/14 11:59:42;;;;;;;4.45;2.22;;;;;30.80;101683.00;;;;10209084;29;20194;-80
2022/06/14 12:05:14;;;;;;;3.90;2.05;;;;;30.20;101685.00;;;;10193679;29;20231;-79
2022/06/14 12:10:47;;;;;;;7.60;1.88;;;;;29.30;101679.00;;;;10241282;29;20201;-78
2022/06/14 12:16:10;;;;;;;3.08;1.50;;;;;30.10;101678.00;;;;10241643;29;20197;-79
2022/06/14 12:21:26;;;;;;;4.63;1.45;;;;;29.50;101677.00;;;;10240449;29;20204;-79
2022/06/14 12:26:40;;;;;;;3.33;1.58;;;;;29.50;101670.00;;;;10223579;29;20209;-79
2022/06/14 12:32:01;;;;;;;4.47;1.60;;;;;30.10;101662.00;;;;10208080;29;20212;-79
2022/06/14 12:37:34;;;;;;;4.00;1.50;;;;;30.30;101651.00;;;;10224174;29;20200;-79
2022/06/14 12:43:03;;;;;;;4.05;1.40;;;;;29.90;101644.00;;;;10240137;29;20193;-79
2022/06/14 12:48:30;;;;;;;4.20;1.55;;;;;30.50;101641.00;;;;10225548;29;20264;-79
2022/06/14 12:53:50;;;;;;;2.70;1.38;;;;;29.30;101635.00;;;;10203693;29;20221;-79
2022/06/14 12:58:57;;;;;;;2.40;1.42;;;;;29.40;101629.00;;;;10189820;29;20201;-79
2022/06/14 13:04:08;;;;;;;5.82;1.98;;;;;29.40;101625.00;;;;10222339;29;20201;-79
2022/06/14 13:09:30;;;;;;;4.10;1.60;;;;;29.40;101618.00;;;;10220750;29;20334;-80
2022/06/14 13:14:40;;;;;;;3.05;1.70;;;;;29.60;101602.00;;;;10200371;29;20222;-79
2022/06/14 13:19:47;;;;;;;3.85;1.73;;;;;29.40;101604.00;;;;10204814;29;20188;-79
2022/06/14 13:25:17;;;;;;;4.32;1.40;;;;;29.60;101590.00;;;;10223825;28;20211;-79
2022/06/14 13:30:58;;;;;;;3.35;1.77;;;;;29.80;101589.00;;;;10221689;29;20225;-79
2022/06/14 13:36:12;;;;;;;3.92;1.60;;;;;30.30;101589.00;;;;10199382;29;20347;-80
2022/06/14 13:41:21;;;;;;;4.78;1.88;;;;;30.50;101583.00;;;;10222828;29;20293;-79
2022/06/14 13:46:27;;;;;;;3.83;1.58;;;;;30.60;101571.00;;;;10222598;29;20249;-79
2022/06/14 13:51:49;;;;;;;5.55;1.70;;;;;30.80;101573.00;;;;10211152;29;20241;-79
2022/06/14 13:57:10;;;;;;;5.93;1.48;;;;;31.30;101561.00;;;;10193859;29;20217;-80
2022/06/14 14:02:28;;;;;;;4.70;1.60;;;;;31.60;101565.00;;;;10223238;29;20731;-80
2022/06/14 14:07:35;;;;;;;6.00;1.90;;;;;31.40;101543.00;;;;10190141;29;20225;-80
2022/06/14 14:12:46;;;;;;;6.72;1.90;;;;;32.80;101539.00;;;;10197465;29;20657;-79
2022/06/14 14:17:51;;;;;;;7.50;1.80;;;;;34.80;101543.00;;;;10185329;29;20308;-80
2022/06/14 14:23:27;;;;;;;7.10;1.70;;;;;35.80;101541.00;;;;10205197;29;20225;-80
2022/06/14 14:28:56;;;;;;;4.55;1.67;;;;;36.80;101531.00;;;;10198171;29;20289;-80
2022/06/14 14:34:16;;;;;;;3.45;1.30;;;;;37.50;101515.00;;;;10213034;29;20308;-79
2022/06/14 14:39:33;;;;;;;5.03;1.45;;;;;38.00;101516.00;;;;10175992;29;20238;-80
2022/06/14 14:44:50;;;;;;;4.13;1.58;;;;;37.50;101512.00;;;;10232356;29;20208;-80
2022/06/14 14:49:54;;;;;;;5.35;1.63;;;;;36.40;101508.00;;;;10249644;29;20691;-78
2022/06/14 14:55:15;;;;;;;5.55;1.58;;;;;35.40;101498.00;;;;10217208;29;20217;-78
2022/06/14 15:00:17;;;;;;;3.05;1.42;;;;;36.50;101499.00;;;;10245473;29;20264;-79
2022/06/14 15:05:28;;;;;;;5.90;1.40;;;;;37.50;101489.00;;;;10200861;29;20244;-79
2022/06/14 15:10:58;;;;;;;5.55;1.40;;;;;38.40;101485.00;;;;10237079;29;20300;-78
2022/06/14 15:16:04;;;;;;;4.78;1.55;;;;;38.20;101476.00;;;;10220645;29;20213;-80
2022/06/14 15:21:16;;;;;;;3.45;1.45;;;;;38.10;101467.00;;;;10228185;28;20193;-79
2022/06/14 15:26:21;;;;;;;2.95;1.40;;;;;38.50;101456.00;;;;10226858;28;20182;-80
2022/06/14 15:31:29;;;;;;;5.38;1.48;;;;;38.50;101454.00;;;;10254691;28;20197;-80
2022/06/14 15:36:40;;;;;;;4.10;1.52;;;;;32.70;101456.00;;;;10253581;28;20232;-80
2022/06/14 15:41:42;;;;;;;4.95;1.60;;;;;28.70;101454.00;;;;10220211;28;20660;-79
2022/06/14 15:46:53;;;;;;;4.78;1.48;;;;;29.90;101435.00;;;;10205985;28;20181;-79
2022/06/14 15:51:57;;;;;;;7.43;1.80;;;;;28.50;101437.00;;;;10259345;28;20708;-78
2022/06/14 15:57:16;;;;;;;4.50;1.30;;;;;26.80;101435.00;;;;10220111;28;20204;-78
2022/06/14 16:02:30;;;;;;;3.60;1.75;;;;;26.30;101427.00;;;;10224420;28;20225;-78
2022/06/14 16:07:48;;;;;;;5.32;1.70;;;;;25.80;101421.00;;;;10235274;28;20260;-79
2022/06/14 16:12:55;;;;;;;6.13;1.60;;;;;25.20;101410.00;;;;10248087;28;20211;-79
2022/06/14 16:17:57;;;;;;;5.13;1.45;;;;;24.70;101398.00;;;;10200347;28;20276;-78
2022/06/14 16:23:05;;;;;;;3.50;1.45;;;;;24.70;101388.00;;;;10214154;29;20285;-78
2022/06/14 16:28:20;;;;;;;6.65;1.77;;;;;24.50;101391.00;;;;10238746;29;20221;-79
2022/06/14 16:33:28;;;;;;;6.50;1.65;;;;;24.30;101391.00;;;;10219812;29;20216;-79
2022/06/14 16:38:49;;;;;;;5.38;1.50;;;;;24.20;101392.00;;;;10227968;28;20205;-80
2022/06/14 16:44:00;;;;;;;3.47;1.30;;;;;24.00;101379.00;;;;10229517;28;20201;-79
2022/06/14 16:49:19;;;;;;;2.65;1.35;;;;;24.00;101379.00;;;;10198834;28;20614;-78
2022/06/14 16:54:41;;;;;;;4.85;1.13;;;;;23.90;101372.00;;;;10231393;29;20190;-79
2022/06/14 17:00:05;;;;;;;3.78;1.20;;;;;23.70;101381.00;;;;10207885;28;20214;-78
2022/06/14 17:05:21;;;;;;;5.97;1.65;;;;;23.60;101381.00;;;;10226191;29;20307;-78
2022/06/14 17:10:45;;;;;;;2.58;1.50;;;;;23.50;101373.00;;;;10209623;28;20296;-79
2022/06/14 17:15:57;;;;;;;4.95;1.50;;;;;23.40;101375.00;;;;10216139;28;20228;-79
2022/06/14 17:20:59;;;;;;;3.22;1.40;;;;;23.30;101374.00;;;;10195614;28;20226;-79
2022/06/14 17:31:38;;;;;;;5.65;1.10;;;;;23.10;101380.00;;;;10220727;28;20299;-79
2022/06/14 17:37:25;;;;;;;3.97;1.10;;;;;22.90;101378.00;;;;10223284;29;20288;-79
2022/06/14 17:42:34;;;;;;;2.58;1.35;;;;;22.80;101379.00;;;;10202723;28;20312;-78
2022/06/14 17:47:48;;;;;;;3.83;1.17;;;;;22.70;101363.00;;;;10239253;29;20257;-81
2022/06/14 17:52:56;;;;;;;5.35;1.50;;;;;22.70;101358.00;;;;10218887;28;20206;-78
2022/06/14 17:58:16;;;;;;;2.97;1.52;;;;;22.60;101364.00;;;;10206260;28;20680;-77
2022/06/14 18:03:18;;;;;;;123.25;94.82;;;;;22.50;101365.00;;;;10227969;29;20217;-79
2022/06/14 18:08:39;;;;;;;34.42;31.02;;;;;22.40;101365.00;;;;10219783;29;20218;-79
2022/06/14 18:13:48;;;;;;;10.02;8.38;;;;;22.30;101366.00;;;;10245877;28;20193;-79
2022/06/14 18:20:49;;;;;;;12.95;7.57;;;;;22.20;101366.00;;;;10215188;29;20205;-79
2022/06/14 18:24:53;;;;;;;43.30;35.20;;;;;22.20;101359.00;;;;10247271;29;20189;-80
2022/06/14 18:29:59;;;;;;;27.13;21.35;;;;;22.10;101369.00;;;;10232778;28;20194;-80
2022/06/14 18:35:10;;;;;;;70.97;51.33;;;;;21.90;101371.00;;;;10215945;28;20229;-79
2022/06/14 18:40:24;;;;;;;17.10;9.65;;;;;21.70;101372.00;;;;10234509;28;20226;-80
2022/06/14 18:45:33;;;;;;;26.15;16.27;;;;;21.70;101372.00;;;;10236287;28;20185;-79
2022/06/14 18:50:41;;;;;;;124.68;80.72;;;;;21.50;101371.00;;;;10233825;28;20202;-79
2022/06/14 18:55:46;;;;;;;49.53;39.60;;;;;21.30;101363.00;;;;10233581;28;20625;-80
2022/06/14 19:00:52;;;;;;;75.50;47.33;;;;;21.10;101360.00;;;;10195568;28;20606;-80
2022/06/14 19:06:09;;;;;;;187.75;149.07;;;;;21.00;101362.00;;;;10225531;28;20232;-79
2022/06/14 19:11:41;;;;;;;62.00;45.72;;;;;20.90;101362.00;;;;10227835;28;20634;-80
2022/06/14 19:16:51;;;;;;;61.95;45.47;;;;;21.30;101365.00;;;;10244077;28;20273;-79
2022/06/14 19:22:31;;;;;;;159.80;96.65;;;;;21.10;101361.00;;;;10239517;28;20656;-79
2022/06/14 19:27:44;;;;;;;51.90;39.70;;;;;21.10;101364.00;;;;10241203;28;20198;-80
2022/06/14 19:32:58;;;;;;;44.67;30.95;;;;;20.80;101368.00;;;;10259604;28;20664;-80
2022/06/14 19:38:04;;;;;;;179.05;133.98;;;;;20.40;101359.00;;;;10220363;28;20308;-80
2022/06/14 19:43:22;;;;;;;154.02;97.43;;;;;20.00;101364.00;;;;10208589;28;20194;-80
2022/06/14 19:53:46;;;;;;;41.65;25.92;;;;;19.20;101366.00;;;;10246709;28;20193;-80
2022/06/14 19:58:55;;;;;;;99.80;59.60;;;;;18.90;101358.00;;;;10237723;28;20240;-80
2022/06/14 20:03:58;;;;;;;28.42;15.85;;;;;18.60;101366.00;;;;10214906;28;20270;-80
2022/06/14 20:09:25;;;;;;;6.78;3.22;;;;;18.30;101367.00;;;;10209629;28;20226;-78
2022/06/14 20:14:31;;;;;;;17.90;9.00;;;;;18.00;101373.00;;;;10225926;29;20194;-79
2022/06/14 20:19:50;;;;;;;10.25;2.75;;;;;17.70;101376.00;;;;10225937;28;20237;-80
2022/06/14 20:24:52;;;;;;;9.77;4.65;;;;;17.50;101380.00;;;;10242476;28;20192;-78
2022/06/14 20:29:59;;;;;;;71.22;46.60;;;;;17.30;101380.00;;;;10223875;29;20205;-78
2022/06/14 20:35:06;;;;;;;6.47;3.97;;;;;17.20;101381.00;;;;10220729;28;20771;-79
2022/06/14 20:40:17;;;;;;;11.50;6.47;;;;;17.00;101380.00;;;;10234534;28;20197;-78
2022/06/14 20:45:23;;;;;;;9.40;4.60;;;;;16.70;101392.00;;;;10213487;28;20234;-79
2022/06/14 20:50:33;;;;;;;18.07;8.83;;;;;16.50;101392.00;;;;10197426;28;20202;-79
2022/06/14 20:55:39;;;;;;;165.60;94.28;;;;;16.40;101384.00;;;;10251326;28;20193;-78
2022/06/14 21:00:42;;;;;;;19.63;11.97;;;;;16.20;101393.00;;;;10214536;28;20573;-79
2022/06/14 21:05:44;;;;;;;83.13;44.27;;;;;16.10;101382.00;;;;10231196;28;20220;-79
2022/06/14 21:16:09;;;;;;;33.43;17.30;;;;;15.90;101391.00;;;;10222521;28;20600;-79
2022/06/14 21:21:12;;;;;;;54.03;26.47;;;;;15.70;101394.00;;;;10221148;28;20236;-78
2022/06/14 21:26:14;;;;;;;338.77;149.70;;;;;15.70;101388.00;;;;10203939;28;20198;-78
2022/06/14 21:31:19;;;;;;;46.43;21.13;;;;;15.60;101387.00;;;;10208938;28;20205;-79
2022/06/14 21:36:36;;;;;;;6.80;2.70;;;;;15.50;101382.00;;;;10214984;28;20201;-80
2022/06/14 21:41:45;;;;;;;3.67;2.40;;;;;15.40;101391.00;;;;10227642;28;20209;-79
2022/06/14 21:46:48;;;;;;;5.63;2.87;;;;;15.30;101390.00;;;;10227171;28;20217;-80
2022/06/14 21:51:52;;;;;;;7.87;1.97;;;;;15.20;101398.00;;;;10219779;28;20684;-79
2022/06/14 21:56:56;;;;;;;4.90;1.90;;;;;15.00;101388.00;;;;10223091;28;20316;-78
2022/06/14 22:02:17;;;;;;;4.70;1.90;;;;;14.90;101395.00;;;;10253345;28;20649;-78
2022/06/14 22:07:19;;;;;;;4.13;2.00;;;;;14.80;101399.00;;;;10195786;28;20224;-78
2022/06/14 22:12:27;;;;;;;4.73;2.60;;;;;14.60;101396.00;;;;10228420;28;20208;-79
2022/06/14 22:17:30;;;;;;;6.90;2.10;;;;;14.50;101395.00;;;;10244335;29;20613;-78
2022/06/14 22:22:32;;;;;;;3.67;1.70;;;;;14.40;101390.00;;;;10255276;28;20619;-78
2022/06/14 22:27:37;;;;;;;4.90;2.33;;;;;14.30;101389.00;;;;10227458;29;20210;-79
2022/06/14 22:32:39;;;;;;;5.10;1.87;;;;;14.30;101393.00;;;;10210337;28;20197;-78
2022/06/14 22:37:41;;;;;;;4.00;2.17;;;;;14.20;101395.00;;;;10227491;28;20209;-78
2022/06/14 22:42:45;;;;;;;8.10;1.97;;;;;14.10;101390.00;;;;10225762;28;20201;-79
2022/06/14 22:47:48;;;;;;;6.47;2.13;;;;;14.00;101385.00;;;;10226786;29;20229;-79
2022/06/14 22:52:53;;;;;;;5.00;2.07;;;;;13.90;101383.00;;;;10210685;29;20208;-78
2022/06/14 22:58:02;;;;;;;6.17;2.27;;;;;13.80;101386.00;;;;10264308;28;20273;-78
2022/06/14 23:03:04;;;;;;;7.33;2.40;;;;;13.70;101386.00;;;;10232247;28;20198;-78
2022/06/14 23:08:06;;;;;;;6.90;2.30;;;;;13.60;101383.00;;;;10219889;28;20350;-77
2022/06/14 23:13:08;;;;;;;6.20;1.90;;;;;13.50;101386.00;;;;10233791;28;20237;-78
2022/06/14 23:18:11;;;;;;;5.57;2.47;;;;;13.40;101378.00;;;;10231027;28;20239;-78
2022/06/14 23:23:13;;;;;;;4.67;2.20;;;;;13.40;101386.00;;;;10234208;28;20233;-78
2022/06/14 23:28:15;;;;;;;5.97;2.17;;;;;13.30;101384.00;;;;10217713;28;20300;-78
2022/06/14 23:33:17;;;;;;;8.73;2.77;;;;;13.20;101380.00;;;;10218242;28;20720;-79
2022/06/14 23:38:19;;;;;;;5.40;2.40;;;;;13.10;101384.00;;;;10232739;28;20225;-78
2022/06/14 23:43:22;;;;;;;4.83;2.30;;;;;13.00;101386.00;;;;10226675;28;20368;-78
2022/06/14 23:48:25;;;;;;;6.10;2.60;;;;;12.80;101375.00;;;;10209748;29;20242;-79
2022/06/14 23:53:29;;;;;;;5.30;2.30;;;;;12.70;101375.00;;;;10246396;28;20843;-79
2022/06/14 23:58:31;;;;;;;5.37;2.23;;;;;12.60;101371.00;;;;10231944;29;20726;-79
